Time;durP1;ratioP1;P1;durP2;ratioP2;P2;SDS_P1;SDS_P2;PMS_P1;PMS_P2;Temp;Humidity;BMP_temperature;BMP_pressure;BME280_temperature;BME280_humidity;BME280_pressure;Samples;Min_cycle;Max_cycle;Signal;HPM_P1;HPM_P2
2022/06/01 00:01:01;;;;;;;6.45;4.22;;;;;;;14.10;66.17;100917.72;4994302;28;20137;-55
2022/06/01 00:03:30;;;;;;;7.00;4.50;;;;;;;14.11;66.33;100924.66;4993787;28;20056;-54
2022/06/01 00:05:59;;;;;;;7.25;4.07;;;;;;;14.12;66.35;100936.78;4993930;28;20057;-51
2022/06/01 00:08:26;;;;;;;7.60;4.43;;;;;;;14.11;66.22;100937.69;4991232;28;20042;-54
2022/06/01 00:10:53;;;;;;;6.93;4.95;;;;;;;14.10;66.62;100943.78;4983600;28;20066;-52
2022/06/01 00:13:21;;;;;;;7.50;4.60;;;;;;;14.08;66.35;100936.00;4982236;28;20050;-52
2022/06/01 00:15:48;;;;;;;9.20;5.25;;;;;;;14.06;66.50;100944.72;4983647;28;20065;-51
2022/06/01 00:18:15;;;;;;;10.52;4.75;;;;;;;14.05;66.30;100945.63;4993954;28;20042;-52
2022/06/01 00:20:41;;;;;;;8.48;4.88;;;;;;;14.02;66.40;100943.91;4994019;28;20047;-51
2022/06/01 00:23:09;;;;;;;8.70;4.50;;;;;;;14.00;66.37;100944.81;4993860;28;20104;-52
2022/06/01 00:25:36;;;;;;;9.23;4.45;;;;;;;13.97;66.42;100942.28;4993774;28;20062;-51
2022/06/01 00:28:03;;;;;;;7.03;4.38;;;;;;;13.95;66.57;100931.03;4985781;28;20050;-54
2022/06/01 00:30:29;;;;;;;7.55;4.20;;;;;;;13.97;66.61;100931.84;4980696;28;20054;-55
2022/06/01 00:32:59;;;;;;;8.25;4.85;;;;;;;13.99;66.31;100919.66;4993708;28;20069;-54
2022/06/01 00:35:26;;;;;;;7.63;4.35;;;;;;;13.99;66.44;100914.44;4974294;28;20145;-55
2022/06/01 00:37:58;;;;;;;7.68;4.20;;;;;;;13.98;66.33;100913.56;4973895;28;20420;-53
2022/06/01 00:40:36;;;;;;;7.50;4.57;;;;;;;14.00;66.58;100910.94;4982495;28;20063;-55
2022/06/01 00:43:20;;;;;;;7.82;5.03;;;;;;;13.99;66.20;100898.78;4985991;28;20529;-53
2022/06/01 00:45:48;;;;;;;5.45;4.05;;;;;;;14.00;66.29;100897.91;4993520;28;20082;-53
2022/06/01 00:48:15;;;;;;;5.68;4.20;;;;;;;14.00;66.56;100895.31;4991762;28;20050;-55
2022/06/01 00:50:46;;;;;;;6.97;5.07;;;;;;;14.02;66.46;100898.72;4982381;28;20054;-51
2022/06/01 00:53:18;;;;;;;8.98;5.32;;;;;;;14.03;66.64;100895.25;4982833;28;20065;-51
2022/06/01 00:55:49;;;;;;;9.00;4.72;;;;;;;14.03;66.31;100893.50;4979816;28;20512;-53
2022/06/01 00:58:20;;;;;;;8.55;5.10;;;;;;;14.04;66.36;100889.13;4982045;28;20073;-52
2022/06/01 01:00:51;;;;;;;10.23;5.35;;;;;;;14.03;66.75;100890.88;4980706;28;20065;-54
2022/06/01 01:03:20;;;;;;;7.25;4.85;;;;;;;14.02;66.79;100894.38;4985291;28;20054;-52
2022/06/01 01:05:52;;;;;;;10.00;5.20;;;;;;;14.01;66.97;100881.38;4993030;28;20046;-51
2022/06/01 01:08:18;;;;;;;8.88;4.88;;;;;;;13.99;66.97;100878.81;4973491;28;20058;-52
2022/06/01 01:10:46;;;;;;;6.15;4.10;;;;;;;13.99;66.69;100873.59;4973155;28;20062;-51
2022/06/01 01:13:15;;;;;;;7.63;4.32;;;;;;;13.99;66.95;100873.59;4973438;28;20062;-52
2022/06/01 01:15:51;;;;;;;8.10;5.28;;;;;;;14.00;66.72;100869.25;4975323;28;20345;-52
2022/06/01 01:18:22;;;;;;;8.18;4.75;;;;;;;14.00;67.15;100858.81;4996870;28;20057;-51
2022/06/01 01:21:03;;;;;;;10.85;5.97;;;;;;;14.00;66.88;100864.03;4997172;28;20047;-51
2022/06/01 01:23:41;;;;;;;7.18;4.80;;;;;;;14.02;66.88;100852.69;4996935;28;20054;-52
2022/06/01 01:26:09;;;;;;;8.15;5.15;;;;;;;14.04;66.84;100844.81;4997095;28;20046;-51
2022/06/01 01:28:40;;;;;;;5.95;4.53;;;;;;;14.07;66.95;100839.59;4996908;28;20065;-52
2022/06/01 01:31:08;;;;;;;8.40;4.20;;;;;;;14.11;67.08;100847.31;4985271;28;20066;-53
2022/06/01 01:33:36;;;;;;;6.60;4.70;;;;;;;14.13;66.73;100844.66;4979422;28;20058;-51
2022/06/01 01:36:07;;;;;;;5.85;4.60;;;;;;;14.16;66.73;100855.03;4997037;28;20054;-54
2022/06/01 01:38:43;;;;;;;6.90;4.95;;;;;;;14.17;67.20;100844.56;4992084;28;20055;-53
2022/06/01 01:41:15;;;;;;;6.68;4.85;;;;;;;14.19;66.99;100850.59;4996798;28;20046;-52
2022/06/01 01:43:52;;;;;;;9.88;5.20;;;;;;;14.21;67.21;100853.19;4996880;28;20050;-54
2022/06/01 01:46:18;;;;;;;7.72;5.20;;;;;;;14.22;67.18;100839.25;4996786;28;20054;-53
2022/06/01 01:48:47;;;;;;;6.53;5.57;;;;;;;14.24;67.04;100840.06;4985005;28;20051;-53
2022/06/01 01:51:19;;;;;;;6.97;5.40;;;;;;;14.25;67.15;100833.97;4994997;28;20092;-51
2022/06/01 01:53:46;;;;;;;9.35;5.10;;;;;;;14.27;67.38;100832.19;5004332;28;20138;-51
2022/06/01 01:56:52;;;;;;;6.82;5.25;;;;;;;14.28;67.04;100826.06;4996621;28;20058;-51
2022/06/01 01:59:39;;;;;;;8.93;6.45;;;;;;;14.29;67.53;100822.56;4983984;28;20054;-52
2022/06/01 02:02:13;;;;;;;8.45;5.82;;;;;;;14.33;67.17;100812.94;4985782;28;20050;-54
2022/06/01 02:07:37;;;;;;;6.10;4.65;;;;;;;14.32;67.33;100799.03;4976597;28;20218;-52
2022/06/01 02:12:54;;;;;;;7.30;5.45;;;;;;;14.34;67.48;100807.69;4946419;28;20444;-51
2022/06/01 02:15:28;;;;;;;6.82;4.85;;;;;;;14.34;67.84;100805.06;4995897;28;20058;-52
2022/06/01 02:18:01;;;;;;;7.85;5.72;;;;;;;14.33;67.81;100795.53;4995907;28;20073;-51
2022/06/01 02:20:32;;;;;;;7.10;4.75;;;;;;;14.33;67.80;100795.53;4995756;28;20043;-51
2022/06/01 02:23:01;;;;;;;9.25;5.38;;;;;;;14.31;67.77;100793.84;4995160;28;20050;-52
2022/06/01 02:25:29;;;;;;;5.63;4.57;;;;;;;14.30;67.77;100794.75;4986027;28;20054;-51
2022/06/01 02:27:58;;;;;;;6.32;4.90;;;;;;;14.27;68.14;100795.69;4995636;28;20054;-52
2022/06/01 02:30:33;;;;;;;8.32;5.10;;;;;;;14.27;68.32;100793.06;4982779;28;20483;-51
2022/06/01 02:33:03;;;;;;;8.85;5.57;;;;;;;14.26;68.08;100804.41;4978651;28;20046;-53
2022/06/01 02:35:32;;;;;;;6.70;5.25;;;;;;;14.21;68.28;100804.50;4981918;28;20478;-54
2022/06/01 02:38:04;;;;;;;6.65;5.10;;;;;;;14.19;68.17;100808.03;4995014;28;20379;-53
2022/06/01 02:40:32;;;;;;;7.20;5.25;;;;;;;14.15;68.47;100807.25;4991882;28;20050;-55
2022/06/01 02:42:59;;;;;;;6.63;5.53;;;;;;;14.15;68.74;100806.38;4976435;28;20062;-51
2022/06/01 02:45:27;;;;;;;8.35;5.45;;;;;;;14.15;68.66;100802.03;4987931;28;20050;-52
2022/06/01 02:47:59;;;;;;;7.13;5.35;;;;;;;14.18;68.66;100795.88;4992993;28;20051;-52
2022/06/01 02:50:29;;;;;;;9.70;7.50;;;;;;;14.16;68.84;100800.28;4989503;28;20112;-51
2022/06/01 02:52:58;;;;;;;7.75;5.75;;;;;;;14.16;68.93;100797.66;4980623;28;20475;-53
2022/06/01 02:55:27;;;;;;;6.95;5.32;;;;;;;14.16;68.93;100795.91;4995881;28;20081;-53
2022/06/01 02:57:55;;;;;;;7.40;5.55;;;;;;;14.14;68.95;100794.25;4984007;28;20062;-54
2022/06/01 03:00:24;;;;;;;9.38;5.63;;;;;;;14.11;68.93;100795.16;4976187;28;20081;-55
2022/06/01 03:02:54;;;;;;;6.30;5.10;;;;;;;14.09;69.25;100780.44;4991189;28;20049;-53
2022/06/01 03:05:23;;;;;;;8.35;6.43;;;;;;;14.09;69.05;100775.25;4995087;28;20058;-54
2022/06/01 03:07:50;;;;;;;6.72;5.63;;;;;;;14.11;69.36;100778.66;4995545;28;20110;-52
2022/06/01 03:10:17;;;;;;;7.85;5.38;;;;;;;14.09;69.15;100772.63;4986983;28;20054;-52
2022/06/01 03:12:44;;;;;;;7.63;5.50;;;;;;;14.10;69.35;100775.22;4976645;28;20480;-53
2022/06/01 03:15:14;;;;;;;7.43;5.07;;;;;;;14.09;69.31;100775.25;4995285;28;20050;-52
2022/06/01 03:17:40;;;;;;;8.63;5.65;;;;;;;14.08;69.47;100783.94;4995183;28;20046;-52
2022/06/01 03:20:11;;;;;;;7.07;5.10;;;;;;;14.09;69.64;100777.84;4991522;28;20059;-52
2022/06/01 03:22:40;;;;;;;7.10;4.68;;;;;;;14.11;69.50;100773.47;4984503;28;20058;-52
2022/06/01 03:25:10;;;;;;;6.60;3.92;;;;;;;14.13;69.55;100774.28;4986343;28;20054;-53
2022/06/01 03:27:39;;;;;;;4.35;3.75;;;;;;;14.14;69.71;100776.00;4985979;28;20069;-52
2022/06/01 03:30:07;;;;;;;6.95;4.97;;;;;;;14.15;69.61;100775.09;4994782;28;20054;-52
2022/06/01 03:32:34;;;;;;;6.75;5.68;;;;;;;14.16;69.95;100782.88;4994957;28;20054;-51
2022/06/01 03:35:02;;;;;;;5.15;4.10;;;;;;;14.17;69.94;100783.75;4987103;28;20066;-52
2022/06/01 03:37:32;;;;;;;5.75;4.35;;;;;;;14.17;69.95;100786.34;4983300;28;20051;-52
2022/06/01 03:39:58;;;;;;;5.57;4.50;;;;;;;14.13;69.79;100777.75;4990425;28;20478;-52
2022/06/01 03:42:25;;;;;;;5.10;4.38;;;;;;;14.13;69.94;100782.09;4988443;28;20057;-52
2022/06/01 03:47:35;;;;;;;7.07;4.97;;;;;;;14.08;70.15;100778.75;4994623;28;20089;-52
2022/06/01 03:50:03;;;;;;;6.57;4.88;;;;;;;14.10;70.10;100779.56;4985543;28;20058;-52
2022/06/01 03:52:31;;;;;;;7.07;5.68;;;;;;;14.10;69.89;100776.97;4985297;28;20058;-52
2022/06/01 03:54:57;;;;;;;10.63;6.75;;;;;;;14.09;70.11;100780.44;4975169;28;20066;-52
2022/06/01 03:57:24;;;;;;;10.13;5.97;;;;;;;14.09;69.95;100780.44;4975279;28;20051;-52
2022/06/01 03:59:51;;;;;;;7.82;5.30;;;;;;;14.05;69.94;100776.19;4994412;28;20058;-51
2022/06/01 04:02:19;;;;;;;8.07;6.20;;;;;;;14.04;70.19;100772.69;4994314;28;20059;-53
2022/06/01 04:04:45;;;;;;;9.07;6.03;;;;;;;14.05;70.21;100765.78;4989848;28;20062;-52
2022/06/01 04:07:12;;;;;;;8.25;6.00;;;;;;;14.06;70.48;100764.88;4981129;28;20054;-55
2022/06/01 04:09:40;;;;;;;6.85;5.22;;;;;;;14.07;70.23;100761.38;4991200;28;20078;-53
2022/06/01 04:12:07;;;;;;;6.78;5.22;;;;;;;14.09;70.51;100760.47;4979313;28;20074;-53
2022/06/01 04:14:34;;;;;;;6.97;4.90;;;;;;;14.11;70.45;100763.03;4994244;28;20101;-52
2022/06/01 04:17:00;;;;;;;8.48;5.47;;;;;;;14.12;70.23;100767.34;4994350;28;20058;-54
2022/06/01 04:19:27;;;;;;;7.60;4.43;;;;;;;14.14;70.44;100770.78;4994031;28;20463;-54
2022/06/01 04:21:55;;;;;;;4.57;3.40;;;;;;;14.19;70.46;100766.31;4993657;28;20472;-52
2022/06/01 04:24:26;;;;;;;5.00;3.67;;;;;;;14.23;70.65;100762.75;4989252;28;20050;-55
2022/06/01 04:26:56;;;;;;;5.03;3.88;;;;;;;14.26;70.43;100773.09;4990698;28;20057;-54
2022/06/01 04:29:24;;;;;;;6.90;4.22;;;;;;;14.28;70.67;100771.31;4993875;28;20074;-55
2022/06/01 04:31:55;;;;;;;4.15;3.45;;;;;;;14.32;70.97;100765.13;4991094;28;20046;-54
2022/06/01 04:34:21;;;;;;;4.97;3.13;;;;;;;14.35;70.53;100766.81;4993635;28;20668;-54
2022/06/01 04:36:49;;;;;;;4.40;3.35;;;;;;;14.40;70.70;100755.38;4993984;28;20046;-52
2022/06/01 04:39:15;;;;;;;5.75;4.22;;;;;;;14.44;70.40;100751.84;4987176;28;20089;-52
2022/06/01 04:41:43;;;;;;;12.52;7.65;;;;;;;14.50;70.68;100751.69;4992404;28;20050;-52
2022/06/01 04:44:12;;;;;;;12.63;5.22;;;;;;;14.55;70.63;100762.00;4986057;28;20061;-51
2022/06/01 04:46:38;;;;;;;5.38;4.18;;;;;;;14.61;70.56;100750.59;4993580;28;20061;-51
2022/06/01 04:49:07;;;;;;;4.75;3.65;;;;;;;14.68;70.55;100746.94;4993853;28;20054;-55
2022/06/01 04:51:34;;;;;;;5.63;4.10;;;;;;;14.81;70.42;100743.13;4993666;28;20047;-52
2022/06/01 04:54:00;;;;;;;4.35;3.35;;;;;;;14.94;70.17;100741.91;4993458;28;20058;-51
2022/06/01 04:56:27;;;;;;;5.47;3.55;;;;;;;15.10;70.15;100737.16;4993742;28;20054;-52
2022/06/01 04:58:53;;;;;;;5.18;4.07;;;;;;;15.26;69.53;100740.19;4989103;28;20065;-51
2022/06/01 05:01:23;;;;;;;5.32;4.38;;;;;;;15.41;69.58;100748.47;4988321;28;20069;-52
2022/06/01 05:03:49;;;;;;;7.63;4.38;;;;;;;15.55;69.07;100745.47;4993711;28;20061;-51
2022/06/01 05:06:16;;;;;;;5.07;3.80;;;;;;;15.66;68.57;100740.84;4993818;28;20050;-52
2022/06/01 05:08:43;;;;;;;5.57;3.90;;;;;;;15.78;68.68;100743.09;4993157;28;20051;-54
2022/06/01 05:11:09;;;;;;;5.65;4.20;;;;;;;15.90;68.02;100730.53;4993444;28;20145;-51
2022/06/01 05:13:36;;;;;;;5.28;3.50;;;;;;;16.00;68.06;100742.44;4993644;28;20069;-56
2022/06/01 05:16:03;;;;;;;4.97;3.42;;;;;;;16.09;67.59;100737.78;4993274;28;20113;-54
2022/06/01 05:18:46;;;;;;;5.50;3.45;;;;;;;16.24;67.32;100743.47;4989373;28;20051;-56
2022/06/01 05:21:12;;;;;;;4.47;3.65;;;;;;;16.39;66.99;100745.56;4981636;28;20145;-56
2022/06/01 05:23:48;;;;;;;5.10;3.58;;;;;;;16.52;66.23;100740.81;4987268;28;20365;-55
2022/06/01 05:26:16;;;;;;;4.70;3.55;;;;;;;16.65;65.93;100736.91;4983779;28;20120;-56
2022/06/01 05:28:43;;;;;;;5.45;3.35;;;;;;;16.78;65.50;100738.22;4976788;28;20046;-56
2022/06/01 05:31:13;;;;;;;4.45;3.22;;;;;;;16.92;65.08;100749.06;4985062;28;20076;-55
2022/06/01 05:33:44;;;;;;;4.72;3.47;;;;;;;17.01;64.65;100745.28;4982757;28;20047;-53
2022/06/01 05:36:11;;;;;;;4.30;2.55;;;;;;;17.08;64.33;100743.31;4981900;28;20078;-53
2022/06/01 05:38:40;;;;;;;5.18;2.88;;;;;;;17.24;64.08;100747.13;4982800;28;20483;-55
2022/06/01 05:41:07;;;;;;;4.13;2.70;;;;;;;17.42;63.55;100750.84;4979407;28;20061;-56
2022/06/01 05:43:34;;;;;;;3.63;2.10;;;;;;;17.50;62.98;100744.41;4987716;28;20046;-54
2022/06/01 05:46:01;;;;;;;3.95;2.30;;;;;;;17.63;62.23;100745.66;4992678;28;20086;-56
2022/06/01 05:48:28;;;;;;;4.72;2.28;;;;;;;17.71;61.91;100747.19;4987440;28;20054;-55
2022/06/01 05:50:56;;;;;;;3.47;2.30;;;;;;;17.81;61.75;100753.78;4982280;28;20054;-54
2022/06/01 05:53:26;;;;;;;2.72;2.20;;;;;;;17.97;60.88;100752.28;4978670;28;20055;-54
2022/06/01 05:55:52;;;;;;;3.70;2.33;;;;;;;18.03;60.60;100749.44;4987560;28;20460;-55
2022/06/01 05:58:22;;;;;;;4.40;2.38;;;;;;;18.10;60.45;100750.91;4977207;28;20054;-55
2022/06/01 06:00:51;;;;;;;2.50;2.20;;;;;;;18.24;60.23;100747.75;4980896;28;20054;-53
2022/06/01 06:03:23;;;;;;;4.65;2.50;;;;;;;18.41;59.84;100744.44;4992689;28;20054;-54
2022/06/01 06:08:40;;;;;;;3.88;2.38;;;;;;;18.76;58.81;100741.28;4985823;28;20042;-56
2022/06/01 06:11:06;;;;;;;3.97;2.40;;;;;;;18.87;58.21;100733.78;4985584;28;20106;-55
2022/06/01 06:13:33;;;;;;;4.35;2.17;;;;;;;18.94;57.63;100728.28;4981555;28;20112;-55
2022/06/01 06:16:01;;;;;;;3.42;2.10;;;;;;;18.91;57.47;100724.84;4983820;28;20059;-52
2022/06/01 06:18:28;;;;;;;4.80;2.35;;;;;;;18.98;57.49;100721.97;4995973;28;20416;-54
2022/06/01 06:20:55;;;;;;;3.78;2.25;;;;;;;19.06;57.25;100730.38;4995363;28;20058;-56
2022/06/01 06:23:21;;;;;;;4.20;2.60;;;;;;;19.13;56.59;100729.19;4996177;28;20061;-56
2022/06/01 06:25:49;;;;;;;5.00;2.53;;;;;;;19.11;56.51;100731.03;4992182;28;20069;-55
2022/06/01 06:28:16;;;;;;;5.40;1.88;;;;;;;19.07;56.59;100727.66;4988773;28;20368;-56
2022/06/01 06:30:43;;;;;;;3.47;2.30;;;;;;;19.01;56.43;100724.47;4996077;28;20054;-56
2022/06/01 06:33:10;;;;;;;4.43;2.05;;;;;;;19.00;56.56;100738.50;4995980;28;20057;-53
2022/06/01 06:35:36;;;;;;;3.72;2.13;;;;;;;18.97;56.39;100725.50;4995890;28;20054;-55
2022/06/01 06:38:05;;;;;;;3.00;1.85;;;;;;;18.94;56.62;100728.28;4995969;28;20110;-53
2022/06/01 06:40:32;;;;;;;2.88;1.60;;;;;;;18.92;56.24;100734.44;4989527;28;20402;-55
2022/06/01 06:43:00;;;;;;;3.75;2.47;;;;;;;18.86;55.90;100724.22;4995709;28;20154;-56
2022/06/01 06:45:26;;;;;;;3.00;1.92;;;;;;;18.74;55.87;100731.75;4992556;28;20053;-56
2022/06/01 06:47:53;;;;;;;3.63;2.03;;;;;;;18.54;56.18;100714.16;4995471;28;20053;-56
2022/06/01 06:50:21;;;;;;;5.63;2.55;;;;;;;18.42;56.90;100707.66;4994575;28;20055;-56
2022/06/01 06:52:47;;;;;;;4.28;2.60;;;;;;;18.29;57.05;100714.31;4985885;28;20061;-56
2022/06/01 06:55:15;;;;;;;3.25;2.17;;;;;;;18.13;57.48;100708.81;4984846;28;20072;-53
2022/06/01 06:57:44;;;;;;;3.25;2.33;;;;;;;18.11;57.64;100708.00;4985285;28;20451;-52
2022/06/01 07:00:13;;;;;;;4.55;2.92;;;;;;;18.07;57.90;100702.94;4976099;28;20062;-53
2022/06/01 07:02:41;;;;;;;3.40;2.55;;;;;;;18.16;57.75;100700.81;4993993;28;20692;-53
2022/06/01 07:05:09;;;;;;;4.43;2.25;;;;;;;18.21;57.62;100698.88;4995036;28;20058;-53
2022/06/01 07:07:35;;;;;;;2.97;2.15;;;;;;;18.37;57.61;100696.47;4995177;28;20494;-55
2022/06/01 07:10:02;;;;;;;3.67;2.05;;;;;;;18.59;57.12;100688.56;4985823;28;20058;-53
2022/06/01 07:12:30;;;;;;;6.32;2.67;;;;;;;18.73;56.71;100683.63;4989789;28;20066;-56
2022/06/01 07:14:56;;;;;;;3.28;2.53;;;;;;;18.92;56.13;100684.53;4995007;28;20058;-56
2022/06/01 07:17:25;;;;;;;3.72;2.30;;;;;;;19.10;55.51;100676.75;4993991;28;20061;-57
2022/06/01 07:19:54;;;;;;;3.63;2.40;;;;;;;19.29;54.94;100676.81;4980094;28;20106;-55
2022/06/01 07:22:20;;;;;;;3.33;2.40;;;;;;;19.38;54.71;100677.25;4980798;28;20408;-52
2022/06/01 07:24:47;;;;;;;3.60;2.15;;;;;;;19.43;54.55;100675.25;4994491;28;20069;-54
2022/06/01 07:27:13;;;;;;;4.60;2.95;;;;;;;19.48;54.58;100672.41;4994972;28;20061;-55
2022/06/01 07:29:41;;;;;;;3.28;2.38;;;;;;;19.47;54.37;100674.19;4982736;28;20061;-56
2022/06/01 07:32:08;;;;;;;3.67;2.10;;;;;;;19.54;54.04;100673.03;4975015;28;20132;-56
2022/06/01 07:34:36;;;;;;;2.90;2.30;;;;;;;19.46;54.16;100669.00;4975475;28;20066;-56
2022/06/01 07:45:10;;;;;;;3.97;2.75;;;;;;;19.14;55.28;100670.44;4983483;28;20112;-55
2022/06/01 07:47:37;;;;;;;4.93;2.63;;;;;;;19.08;55.32;100657.59;4993640;28;20054;-55
2022/06/01 07:50:06;;;;;;;2.95;2.33;;;;;;;19.07;55.59;100666.41;4993526;28;20483;-56
2022/06/01 07:52:33;;;;;;;5.60;2.75;;;;;;;19.10;55.78;100661.84;4993847;28;20443;-55
2022/06/01 07:54:59;;;;;;;3.35;2.75;;;;;;;19.08;55.64;100657.59;4994213;28;20061;-55
2022/06/01 07:57:27;;;;;;;6.88;2.40;;;;;;;19.05;55.77;100662.97;4986891;28;20487;-56
2022/06/01 07:59:53;;;;;;;6.60;2.45;;;;;;;19.02;55.64;100658.72;4984580;28;20722;-55
2022/06/01 08:02:20;;;;;;;4.03;2.92;;;;;;;18.96;55.76;100660.75;4982963;28;20057;-56
2022/06/01 08:04:46;;;;;;;5.35;2.47;;;;;;;18.82;56.29;100656.13;4992897;28;20065;-53
2022/06/01 08:07:14;;;;;;;4.65;2.75;;;;;;;18.72;56.43;100645.13;4993360;28;20050;-54
2022/06/01 08:09:40;;;;;;;4.50;2.80;;;;;;;18.65;56.67;100643.69;4993925;28;20050;-54
2022/06/01 08:14:51;;;;;;;5.15;2.65;;;;;;;18.55;57.05;100651.09;4974411;28;20067;-55
2022/06/01 08:17:18;;;;;;;3.65;2.53;;;;;;;18.52;57.17;100653.00;4985069;28;20058;-55
2022/06/01 08:19:46;;;;;;;3.88;2.63;;;;;;;18.47;57.34;100644.47;4993583;28;20069;-55
2022/06/01 08:22:14;;;;;;;6.00;2.28;;;;;;;18.44;57.42;100644.59;4993730;28;20140;-55
2022/06/01 08:24:41;;;;;;;3.72;2.45;;;;;;;18.42;57.75;100646.44;4989717;28;20128;-54
2022/06/01 08:27:08;;;;;;;3.20;2.60;;;;;;;18.44;57.56;100639.34;4993043;28;20068;-54
2022/06/01 08:29:36;;;;;;;4.13;2.92;;;;;;;18.46;57.30;100642.75;4979741;28;20050;-55
2022/06/01 08:32:04;;;;;;;3.80;2.50;;;;;;;18.49;57.13;100637.38;4974117;28;20062;-55
2022/06/01 08:34:32;;;;;;;3.80;1.92;;;;;;;18.57;57.20;100640.53;4976782;28;20070;-54
2022/06/01 08:36:59;;;;;;;4.40;2.60;;;;;;;18.62;57.09;100643.84;4984236;28;20375;-56
2022/06/01 08:39:26;;;;;;;5.25;2.70;;;;;;;18.60;56.91;100637.75;4992606;28;20670;-54
2022/06/01 08:41:55;;;;;;;4.28;2.60;;;;;;;18.58;56.96;100636.97;4992973;28;20502;-55
2022/06/01 08:44:28;;;;;;;2.90;2.10;;;;;;;18.66;56.73;100627.03;4993667;28;20041;-55
2022/06/01 08:46:57;;;;;;;3.95;2.83;;;;;;;18.81;56.81;100623.75;4980206;28;20062;-55
2022/06/01 08:49:28;;;;;;;4.13;2.17;;;;;;;18.99;56.72;100632.59;4973694;28;20058;-55
2022/06/01 08:51:56;;;;;;;3.40;2.40;;;;;;;19.10;56.46;100629.47;4988849;28;20073;-55
2022/06/01 08:54:23;;;;;;;3.75;2.00;;;;;;;19.17;56.25;100623.03;4992579;28;20058;-54
2022/06/01 08:56:56;;;;;;;4.47;2.35;;;;;;;19.21;56.07;100621.94;4993089;28;20058;-56
2022/06/01 08:59:31;;;;;;;5.35;2.63;;;;;;;19.20;55.76;100617.63;4978829;28;20046;-56
2022/06/01 09:02:08;;;;;;;4.15;2.35;;;;;;;19.24;55.88;100622.66;4979520;28;20054;-55
2022/06/01 09:04:44;;;;;;;4.10;2.13;;;;;;;19.27;55.67;100621.69;4991322;28;20061;-53
2022/06/01 09:07:22;;;;;;;3.58;2.22;;;;;;;19.29;55.26;100619.84;4993275;28;20137;-54
2022/06/01 09:10:12;;;;;;;2.95;2.08;;;;;;;19.30;55.42;100621.56;4992768;28;20051;-57
2022/06/01 09:12:42;;;;;;;4.25;2.45;;;;;;;19.31;55.23;100623.25;4992148;28;20054;-55
2022/06/01 09:15:17;;;;;;;3.58;2.50;;;;;;;19.32;54.95;100619.72;4993323;28;20054;-56
2022/06/01 09:17:43;;;;;;;15.98;3.15;;;;;;;19.31;55.17;100612.75;4987790;28;20050;-56
2022/06/01 09:23:00;;;;;;;6.30;2.70;;;;;;;19.32;54.84;100614.47;4984448;28;20193;-53
2022/06/01 09:25:32;;;;;;;3.30;2.20;;;;;;;19.32;55.00;100614.47;4993497;28;20391;-55
2022/06/01 09:28:05;;;;;;;3.30;2.55;;;;;;;19.30;55.18;100604.94;4993310;28;20478;-56
2022/06/01 09:30:35;;;;;;;4.90;2.60;;;;;;;19.27;55.13;100597.19;4990718;28;20059;-53
2022/06/01 09:33:11;;;;;;;3.38;2.30;;;;;;;19.23;55.44;100599.09;4993489;28;20467;-55
2022/06/01 09:35:38;;;;;;;;;;;;;;;19.14;55.82;100605.63;4993793;28;20054;-52
2022/06/01 09:38:17;;;;;;;4.13;2.30;;;;;;;19.11;56.00;100599.66;4997050;28;19922;-54
2022/06/01 09:40:43;;;;;;;4.18;2.58;;;;;;;19.08;56.16;100590.13;4984477;28;20042;-53
2022/06/01 09:43:22;;;;;;;3.80;2.78;;;;;;;19.06;56.42;100586.72;4997575;28;20138;-52
2022/06/01 09:45:53;;;;;;;5.65;2.92;;;;;;;19.07;56.65;100584.94;4997428;28;20078;-53
2022/06/01 09:48:27;;;;;;;3.88;2.50;;;;;;;19.04;56.57;100572.81;4993391;28;20047;-53
2022/06/01 09:51:03;;;;;;;10.38;3.13;;;;;;;19.03;56.60;100578.13;4994393;28;20046;-56
2022/06/01 09:53:39;;;;;;;6.38;3.03;;;;;;;19.06;56.63;100583.25;4988779;28;20452;-55
2022/06/01 09:56:06;;;;;;;3.40;2.38;;;;;;;19.06;56.52;100583.25;4997362;28;20051;-55
2022/06/01 10:06:54;;;;;;;6.38;2.70;;;;;;;18.91;57.01;100572.53;4994239;28;20096;-56
2022/06/01 10:09:23;;;;;;;6.15;2.97;;;;;;;18.90;57.06;100565.56;4992241;28;20050;-56
2022/06/01 10:11:51;;;;;;;5.32;3.05;;;;;;;18.98;56.95;100553.84;4996596;28;20069;-55
2022/06/01 10:14:22;;;;;;;4.82;2.55;;;;;;;19.05;56.88;100557.91;4996961;28;20082;-56
2022/06/01 10:16:57;;;;;;;6.00;2.80;;;;;;;19.09;56.91;100548.94;4996534;28;20064;-55
2022/06/01 10:19:30;;;;;;;4.43;3.10;;;;;;;19.12;56.53;100539.16;4996371;28;20366;-53
2022/06/01 10:22:02;;;;;;;4.53;2.83;;;;;;;19.21;56.54;100533.47;4987638;28;20058;-56
2022/06/01 10:24:36;;;;;;;5.13;3.33;;;;;;;19.32;56.38;100524.25;4988209;28;20387;-55
2022/06/01 10:27:04;;;;;;;7.53;3.03;;;;;;;19.39;56.28;100523.88;4988991;28;20057;-57
2022/06/01 10:29:39;;;;;;;5.05;2.90;;;;;;;19.45;56.27;100515.69;4996533;28;20050;-55
2022/06/01 10:32:10;;;;;;;3.85;3.10;;;;;;;19.51;56.03;100520.66;4986462;28;20057;-55
2022/06/01 10:34:46;;;;;;;10.60;3.17;;;;;;;19.57;55.71;100519.53;4985947;28;20054;-56
2022/06/01 10:37:23;;;;;;;25.58;4.35;;;;;;;19.61;55.62;100512.34;4993260;28;20057;-56
2022/06/01 10:39:56;;;;;;;8.32;3.95;;;;;;;19.61;55.58;100499.19;4991104;28;20053;-52
2022/06/01 10:43:16;;;;;;;3.63;3.13;;;;;;;19.58;55.79;100499.34;4989306;28;20061;-55
2022/06/01 10:45:38;;;;;;;4.13;2.90;;;;;;;19.59;55.81;100511.56;4993807;28;20057;-55
2022/06/01 10:48:12;;;;;;;6.75;3.75;;;;;;;19.60;55.79;100518.53;4996262;28;20081;-56
2022/06/01 10:50:48;;;;;;;3.60;3.25;;;;;;;19.61;55.95;100514.97;4989367;28;20046;-56
2022/06/01 10:53:26;;;;;;;4.47;3.25;;;;;;;19.65;55.86;100511.25;4992836;28;20053;-56
2022/06/01 10:55:54;;;;;;;5.00;3.25;;;;;;;19.66;55.99;100512.97;4993168;28;20463;-56
2022/06/01 10:58:30;;;;;;;8.60;4.05;;;;;;;19.67;56.13;100509.41;4995903;28;20051;-53
2022/06/01 11:01:08;;;;;;;4.47;3.60;;;;;;;19.66;55.89;100505.06;4990830;28;20055;-55
2022/06/01 11:04:06;;;;;;;9.40;4.47;;;;;;;19.65;56.08;100516.53;4988171;28;20467;-54
2022/06/01 11:06:52;;;;;;;6.10;4.00;;;;;;;19.70;56.44;100519.78;4987345;28;20054;-56
2022/06/01 11:09:28;;;;;;;15.65;6.05;;;;;;;19.63;56.52;100518.38;4995575;28;20050;-52
2022/06/01 11:12:02;;;;;;;11.68;5.38;;;;;;;19.51;56.80;100518.03;4995161;28;20062;-53
2022/06/01 11:14:49;;;;;;;7.28;4.25;;;;;;;19.43;57.18;100514.91;4995195;28;20502;-55
2022/06/01 11:17:24;;;;;;;13.93;6.28;;;;;;;19.38;57.31;100513.44;4993883;28;20337;-54
2022/06/01 11:20:03;;;;;;;13.40;5.30;;;;;;;19.34;57.39;100512.72;4995167;28;20061;-54
2022/06/01 11:22:45;;;;;;;9.63;4.90;;;;;;;19.40;57.63;100507.19;4995229;28;20057;-54
2022/06/01 11:25:20;;;;;;;11.77;5.20;;;;;;;19.44;57.45;100514.00;4990811;28;20062;-53
2022/06/01 11:28:15;;;;;;;8.85;4.75;;;;;;;19.46;57.49;100512.13;4994798;28;20055;-54
2022/06/01 11:30:51;;;;;;;11.43;4.90;;;;;;;19.49;57.19;100514.63;4976873;28;20059;-54
2022/06/01 11:33:28;;;;;;;7.85;5.20;;;;;;;19.51;57.35;100515.41;4975598;28;20050;-55
2022/06/01 11:36:02;;;;;;;13.73;5.57;;;;;;;19.50;56.88;100513.69;4975572;28;20058;-56
2022/06/01 11:38:35;;;;;;;7.97;4.38;;;;;;;19.42;57.02;100515.84;4978471;28;20043;-53
2022/06/01 11:41:11;;;;;;;7.57;5.07;;;;;;;19.37;57.19;100507.34;4979642;28;20109;-54
2022/06/01 11:43:44;;;;;;;12.13;4.35;;;;;;;19.34;57.21;100512.72;4983245;28;20530;-55
2022/06/01 11:46:15;;;;;;;9.43;4.07;;;;;;;19.37;57.46;100511.72;4984708;28;20054;-54
2022/06/01 11:48:53;;;;;;;6.20;4.60;;;;;;;19.36;57.18;100503.00;4981267;28;20340;-57
2022/06/01 11:51:26;;;;;;;9.73;4.68;;;;;;;19.32;57.26;100506.69;4990711;28;20043;-56
2022/06/01 11:54:02;;;;;;;7.07;4.28;;;;;;;19.31;57.20;100502.38;4993801;28;20054;-56
2022/06/01 11:56:37;;;;;;;8.40;4.35;;;;;;;19.33;57.18;100500.53;4994487;28;20054;-53
2022/06/01 11:59:18;;;;;;;5.63;4.40;;;;;;;19.37;57.22;100501.22;4993618;28;20054;-54
2022/06/01 12:01:49;;;;;;;8.25;3.83;;;;;;;19.37;57.35;100502.06;4992939;28;20046;-53
2022/06/01 12:04:25;;;;;;;7.13;3.83;;;;;;;19.34;57.43;100502.22;4987523;28;20129;-55
2022/06/01 12:07:02;;;;;;;6.22;4.07;;;;;;;19.30;56.91;100502.44;4992930;28;20060;-53
2022/06/01 12:09:47;;;;;;;8.85;4.22;;;;;;;19.22;56.16;100500.16;4980766;28;20054;-55
2022/06/01 12:12:45;;;;;;;5.53;3.85;;;;;;;19.11;56.54;100503.28;4938498;29;20468;-56